Extreme weather reports worldwide

Low visibility

Station
 
Location
 
Name
 
Wind
Knots
Gust
Knots
Vis
SM
Temp/Dew
C
Baro
inHg
METAR
 
ASD MYAF BS Andros Town Airport 5 0 26/22 30.05 MYAF 290300Z AUTO 04005KT 350V080 0000 FG FEW022 SCT025 26/22 A3005
EGOM Spadeadam, GB RAF Spadeadam 5 0 3/3 29.97 EGOM 290250Z AUTO 29005KT 0000 FG OVC001/// 03/03 Q1015
EGVP Middle Wallop, GB Middle Wallop Airfield 2 0.03 4/4 30.00 EGVP 290250Z AUTO 29002KT 0050 FG OVC001/// 04/04 Q1016
EGDM Amesbury, GB MoD Boscombe Down Airport 4 0.03 2/2 30.00 EGDM 290250Z AUTO 32004KT 0050 FG OVC001/// 02/02 Q1016
UBBF 6 0.06 8/8 30.27 UBBF 290300Z AUTO 02006KT 0100 // ///001/// 08/08 Q1025

Station
 
Location
 
Name
 
Wind
Knots
Gust
Knots
Vis
SM
Temp/Dew
C
Baro
inHg
METAR
 
LIVR 2 0.06 -4/-5 29.94 LIVR 290255Z 32002KT 0100 -SN FZFG VV/// M04/M05 Q1014 RMK MON INVIS VIS MIN 0100
EGOS Shawbury, GB RAF Shawbury 1 0.06 1/1 30.00 EGOS 290250Z AUTO 05001KT 0100 FG OVC001/// 01/01 Q1016
LHKE Kecskemét, HU Kecskemét Airport 8 0.06 0/0 30.18 LHKE 290245Z 08008KT 0100 FG VV002 M00/M00 Q1022 NOSIG RMK RED
STW URMT Stavropol, RU Stavropol Shpakovskoye Airport 17 0.09 0/0 30.27 URMT 290300Z 10009MPS 0150 R07/0450N FZFG VV002 M00/M00 Q1025 R07/150060 NOSIG RMK QBB060 OBST OBSC QFE728
EGXZ Topcliffe, GB RAF Topcliffe 1 0.09 1/1 30.00 EGXZ 290250Z AUTO 28001KT 0150 FG OVC001/// 01/01 Q1016
EGXE Leeming, GB RAF Leeming Air Base 1 0.09 -1/-1 30.00 EGXE 290250Z AUTO 24001KT 0150 FG BKN001/// M01/M01 Q1016
MAN EGCC Manchester, GB Manchester Airport 1 0.09 3/3 30.03 EGCC 290250Z AUTO VRB01KT 0150 R23R/0500N FG VV/// 03/03 Q1017 NOSIG
EBFN Koksijde, BE Koksijde Air Base 1 0.12 2/2 29.97 EBFN 290255Z AUTO VRB01KT 0200 FG OVC001/// 02/02 Q1015 RED
YEO EGDY Yeovil, GB RNAS Yeovilton 2 0.12 0/0 30.03 EGDY 290250Z AUTO 28002KT 0200 FG OVC001/// 00/M00 Q1017
OST EBOS Ostend, BE Ostend-Bruges International Airport 3 0.12 1/1 29.97 EBOS 290250Z 05003KT 0200 R08/0450U R26/0400N FG NSC 01/01 Q1015 NOSIG
LHSN Szolnok, HU Szolnok Air Base 6 0.12 0/0 30.18 LHSN 290245Z 08006KT 0200 R02/0550N FG VV002 00/00 Q1022 NOSIG RMK RED
KMWN 45 50 0.13 -12/-14 KMWN 290253Z COR 31045G50KT 1/8SM FZFG BKN000 OVC005 M12/M14 RMK FZFG BKN000 BLSN AT STA FZFG INTMT VRY LGT ICG
TZL LQTZ Tuzla, BA Tuzla International Airport 3 0.16 -1/-1 30.03 LQTZ 290300Z 30003KT 0250 R09/0200N FG BKN003 M01/M01 Q1017
WOE EHWO Bergen Op Zoom, NL Woensdrecht Air Base 2 0.16 3/3 29.97 EHWO 290255Z AUTO 25002KT 0250 FG VV000 03/03 Q1015 RED
LEY EHLE Lelystad, NL Lelystad Airport 2 0.16 8/8 29.97 EHLE 290255Z AUTO 18002KT 0250 FG VV000 08/08 Q1015
AMS EHAM Amsterdam, NL Amsterdam Airport Schiphol 1 0.16 7/7 29.97 EHAM 290255Z 22001KT 0250 R18C/0325N R27/0325N R18R/0225N R06/0275N FG BKN000 07/07 Q1015 NOSIG
EBDT Diest, BE Schaffen Airfield 2 0.16 5/5 29.97 EBDT 290255Z AUTO VRB02KT 0250 FG BKN054/// OVC160/// 05/05 Q1015 RED
EBCV Chièvres, BE Chièvres Air Base 1 0.16 1/1 29.97 EBCV 290255Z AUTO VRB01KT 0250 FG OVC003/// 01/01 Q1015 RED
SCV LRSV Suceava, RO Suceava Stefan cel Mare Airport 3 0.19 -1/-1 30.21 LRSV 290300Z 36003KT 0300 R34/0500N FZFG VV001 M01/M01 Q1023
CLJ LRCL Cluj-Napoca, RO Cluj-Napoca International Airport 1 0.19 -2/-3 30.18 LRCL 290300Z 10001KT 0300 R25/0350N FZFG VV001 M02/M03 Q1022
GLA EGPF Glasgow, GB Glasgow International Airport 1 0.19 1/1 30.00 EGPF 290250Z AUTO VRB01KT 0300 FG VV/// 01/01 Q1016
EHVK Uden, NL Volkel Air Base 1 0.22 5/5 29.94 EHVK 290255Z AUTO VRB01KT 0350 FG OVC000 05/05 Q1014 RED
RTM EHRD Rotterdam, NL Rotterdam The Hague Airport 1 0.22 3/3 29.97 EHRD 290255Z AUTO 35001KT 0350 R24/0450N FG OVC000 03/03 Q1015 NOSIG
DHR EHKD Den Helder, NL De Kooy Airport 2 0.22 5/4 29.94 EHKD 290255Z AUTO 21002KT 0350 FG FEW000 OVC150 05/04 Q1014 RED
EIN EHEH Eindhoven, NL Eindhoven Airport 3 0.22 5/5 29.97 EHEH 290255Z AUTO 23003KT 0350 FG OVC000 05/05 Q1015 RED
EBFS Florennes, BE Florennes Air Base 1 0.22 4/4 29.94 EBFS 290255Z AUTO VRB01KT 0350 BR FEW001/// BKN025/// 04/04 Q1014 RED
BAL LTCJ Batman, TR Batman Airport 2 0.22 7/7 30.15 LTCJ 290250Z VRB02KT 0350 R02/0450N R20/0400N FG BKN006 07/07 Q1021 NOSIG RMK RWY20 VRB01KT 7ST006
BHD EGAC Belfast, GB George Best Belfast City Airport 2 0.22 3/3 30.00 EGAC 290250Z AUTO VRB02KT 0350 FG OVC002 03/03 Q1016
BFS EGAA Belfast, GB Belfast International Airport 3 0.22 3/3 30.00 EGAA 290250Z AUTO 12003KT 090V150 0350 R25/0375N FG VV/// 03/03 Q1016
FFD EGVA Fairford, GB RAF Fairford 0 0.25 4/4 30.00 EGVA 290310Z AUTO 00000KT 0400 R09/0550V0600 FG VV000 04/04 A3000 RMK AO2 SLP165 $
VEKI 1 0.25 15/15 29.97 VEKI 290300Z VRB01KT 0400 FG NSC 15/15 Q1015 NOSIG
NAL URMN Nalchik, RU Nalchik Airport 4 0.25 1/1 30.30 URMN 290300Z 07002MPS 0400 R24/0450 FG VV001 01/01 Q1026 R24/////// NOSIG RMK QBB030 MT OBSC OBST OBSC QFE732
BYF LFAQ Albert/Bray, FR Albert-Bray Airport 3 0.25 2/2 29.97 LFAQ 290300Z AUTO VRB03KT 0400 R27/0550N FG VV/// 02/02 Q1015
YKY CYKY Kindersley, CA Kindersley Airport 21 28 0.25 -13/-15 29.79 CYKY 290300Z 32021G28KT 1/4SM -SN BLSN OVC009 M13/M15 A2979 RMK BLSN6SC2 SLP141
HSB KHSB Harrisburg, US Harrisburg-Raleigh Airport 4 0.25 2/2 29.99 KHSB 290255Z AUTO 13004KT 1/4SM FG BKN004 03/03 A2999 RMK AO2 T00250025
BIX KBIX Biloxi, US Keesler Air Force Base 0 0.25 14/13 30.01 KBIX 290255Z AUTO 00000KT 1/4SM R04/1400V2200FT FG CLR 15/14 A3001 RMK AO2 SLP165 T01450139 52007
EGUW Stowmarket, GB Wattisham Airfield 6 0.25 6/6 29.97 EGUW 290250Z AUTO 36006KT 0400 FG VV/// 06/06 Q1015
SGE EDGS DE Siegerland Airport 5 0.25 5/5 29.91 EDGS 290250Z AUTO 29005KT 0400 R13/0450N // SCT000/// OVC003/// 05/05 Q1013
DYR UHMA Anadyr, RU Ugolny Airport 37 0.28 -1/-2 30.06 UHMA 290300Z 11019MPS 0450 0400W R19/0900N +SN BLSN VV010 M01/M02 Q1018 R19/590534 NOSIG RMK TDZ R19/11019G23MPS END R19/10015G22MPS QFE758/1011
ARW LRAR Arad, RO Arad International Airport 4 0.28 1/1 30.15 LRAR 290300Z 06004KT 0450 R27/0500N FG VV001 01/01 Q1021
LFQA Reims/Prunay, FR Aérodrome de Reims Prunay 2 0.28 5/5 29.97 LFQA 290300Z AUTO VRB02KT 0450 FG VV/// 05/05 Q1015
GLZ EHGR Breda, NL Gilze Rijen Air Base 1 0.28 3/3 29.97 EHGR 290255Z AUTO 13001KT 0450 FG OVC000 03/03 Q1015 RED
VEBN 3 0.31 17/17 30.00 VEBN 290300Z 27003KT 0500 R27/0800 FG NSC 17/17 Q1016 BECMG 0600 MIFG
EDI EGPH Edinburgh, GB Edinburgh Airport 2 0.31 0/0 30.00 EGPH 290250Z 35002KT 0500 R24/0800 FG FEW007 OVC015 00/M00 Q1016
EMA EGNX Nottingham, GB East Midlands Airport 2 0.31 5/5 30.00 EGNX 290250Z VRB02KT 0500 R27/P1500 FG OVC001 05/05 Q1016